Terminal Aerodrome Forecast
Issued by NWS Jacksonville, FL

Home | Current Version | Previous Version | Text Only | Print | Product List | Glossary On
Versions: 1 2 3 4 5 6 7 8 9 10 11 12 13 14 15 16 17 18 19 20 21 22 23 24 25 26 27 28 29
000
FTUS42 KJAX 012256 AAC
TAFSSI
TAF AMD
KSSI 012256Z 0123/0218 17008KT P6SM VCSH SCT025 BKN035
      TEMPO 0123/0201 SHRA BKN025
     FM020200 21007KT P6SM FEW015 SCT025 BKN120
     FM021300 22007KT P6SM VCTS BKN030CB=

USA.gov is the U.S. government's official web portal to all federal, state and local government web resources and services.